createdAt,value
2023-01-18T00:01:32.112Z,96169.56
2023-01-18T00:04:48.854Z,96167.94
2023-01-18T00:08:05.292Z,96162.28
2023-01-18T00:11:24.141Z,96171.33
2023-01-18T00:14:41.187Z,96158.66
2023-01-18T00:17:57.707Z,96163.46
2023-01-18T00:21:17.712Z,96170.31
2023-01-18T00:24:33.840Z,96163.41
2023-01-18T00:27:56.486Z,96166.02
2023-01-18T00:31:18.485Z,96165.00
2023-01-18T00:34:38.321Z,96163.10
2023-01-18T00:37:52.814Z,96170.48
2023-01-18T00:41:08.902Z,96174.80
2023-01-18T00:44:26.153Z,96168.70
2023-01-18T00:47:42.230Z,96168.63
2023-01-18T00:50:58.383Z,96161.31
2023-01-18T00:54:15.101Z,96166.69
2023-01-18T00:57:31.390Z,96172.66
2023-01-18T01:00:47.956Z,96160.35
2023-01-18T01:04:18.603Z,96136.16
2023-01-18T01:07:36.441Z,96128.25
2023-01-18T01:10:54.656Z,96141.27
2023-01-18T01:14:25.480Z,96137.77
2023-01-18T01:18:00.473Z,96146.54
2023-01-18T01:21:31.094Z,96136.73
2023-01-18T01:25:01.819Z,96131.81
2023-01-18T01:28:18.474Z,96118.56
2023-01-18T01:31:36.395Z,96101.29
2023-01-18T01:34:53.205Z,96085.43
2023-01-18T01:38:09.590Z,96080.22
2023-01-18T01:41:31.095Z,96074.20
2023-01-18T01:45:03.604Z,96063.32
2023-01-18T01:48:21.823Z,96080.22
2023-01-18T01:51:40.792Z,96086.26
2023-01-18T01:55:02.512Z,96098.48
2023-01-18T01:58:23.309Z,96101.92
2023-01-18T02:01:43.179Z,96088.48
2023-01-18T02:05:01.526Z,96074.08
2023-01-18T02:08:22.853Z,96071.88
2023-01-18T02:11:39.813Z,96051.94
2023-01-18T02:14:59.697Z,96027.84
2023-01-18T02:18:28.166Z,96009.14
2023-01-18T02:21:49.810Z,95980.86
2023-01-18T02:25:52.121Z,95968.17
2023-01-18T02:29:14.282Z,96006.77
2023-01-18T02:32:41.917Z,95989.30
2023-01-18T02:36:03.310Z,95990.72
2023-01-18T02:39:27.389Z,96012.03
2023-01-18T02:42:59.469Z,96009.66
2023-01-18T02:46:34.288Z,95993.63
2023-01-18T02:49:50.580Z,95998.45
2023-01-18T02:53:07.231Z,95997.46
2023-01-18T02:56:28.049Z,96007.71
2023-01-18T02:59:48.108Z,96020.20
2023-01-18T03:03:06.528Z,96038.13
2023-01-18T03:06:25.734Z,96060.20
2023-01-18T03:09:42.527Z,96055.97
2023-01-18T03:13:04.598Z,96052.77
2023-01-18T03:16:26.964Z,96035.55
2023-01-18T03:20:12.745Z,96046.75
2023-01-18T03:23:46.566Z,96047.90
2023-01-18T03:27:22.002Z,96049.41
2023-01-18T03:30:56.227Z,96046.59
2023-01-18T03:34:19.097Z,96036.95
2023-01-18T03:37:38.906Z,96017.13
2023-01-18T03:40:55.948Z,96013.56
2023-01-18T03:44:16.946Z,96020.27
2023-01-18T03:47:35.382Z,96017.89
2023-01-18T03:50:56.315Z,96020.50
2023-01-18T03:54:17.119Z,96013.89
2023-01-18T03:57:40.202Z,95994.21
2023-01-18T04:00:58.792Z,95974.56
2023-01-18T04:04:15.998Z,95966.13
2023-01-18T04:07:32.757Z,95960.91
2023-01-18T04:10:50.561Z,95969.94
2023-01-18T04:14:07.071Z,95981.35
2023-01-18T04:17:23.794Z,95965.26
2023-01-18T04:20:40.230Z,95954.04
2023-01-18T04:23:56.556Z,95958.27
2023-01-18T04:27:14.234Z,95960.66
2023-01-18T04:31:35.522Z,95961.88
2023-01-18T04:35:10.844Z,95960.73
2023-01-18T04:38:30.330Z,95955.90
2023-01-18T04:41:47.836Z,95970.41
2023-01-18T04:45:05.668Z,95970.02
2023-01-18T04:48:22.093Z,95966.20
2023-01-18T04:51:38.630Z,95969.23
2023-01-18T04:54:55.125Z,95983.92
2023-01-18T04:58:11.770Z,95977.08
2023-01-18T05:01:34.320Z,95971.42
2023-01-18T05:04:51.135Z,95965.58
2023-01-18T05:08:07.978Z,95976.28
2023-01-18T05:11:28.092Z,95981.68
2023-01-18T05:14:44.879Z,95983.08
2023-01-18T05:18:07.965Z,95995.69
2023-01-18T05:21:24.908Z,95996.69
2023-01-18T05:24:51.169Z,95993.50
2023-01-18T05:28:07.575Z,95988.10
2023-01-18T05:31:25.073Z,95982.30
2023-01-18T05:34:41.895Z,95982.72
2023-01-18T05:37:58.839Z,95997.58
2023-01-18T05:41:15.929Z,96005.62
2023-01-18T05:44:32.719Z,96008.66
2023-01-18T05:47:51.998Z,95985.34
2023-01-18T05:51:10.200Z,95963.44
2023-01-18T05:54:26.698Z,95957.59
2023-01-18T05:57:44.642Z,95959.36
2023-01-18T06:01:03.672Z,95965.53
2023-01-18T06:04:21.194Z,95960.45
2023-01-18T06:07:38.807Z,95973.31
2023-01-18T06:11:02.642Z,95986.23
2023-01-18T06:14:19.052Z,95988.02
2023-01-18T06:17:36.731Z,95997.05
2023-01-18T06:20:53.656Z,95974.19
2023-01-18T06:24:10.911Z,95980.86
2023-01-18T06:27:27.346Z,95994.07
2023-01-18T06:30:43.960Z,95997.31
2023-01-18T06:34:01.194Z,96003.53
2023-01-18T06:37:17.945Z,95992.31
2023-01-18T06:40:34.717Z,96016.84
2023-01-18T06:43:51.358Z,95997.91
2023-01-18T06:47:07.937Z,95990.49
2023-01-18T06:50:27.087Z,95985.47
2023-01-18T06:53:43.211Z,95993.11
2023-01-18T06:56:59.495Z,96003.77
2023-01-18T07:00:19.275Z,96001.79
2023-01-18T07:03:39.586Z,96011.05
2023-01-18T07:06:57.254Z,96026.27
2023-01-18T07:10:16.775Z,96027.04
2023-01-18T07:13:33.645Z,96041.06
2023-01-18T07:16:50.371Z,96033.36
2023-01-18T07:20:06.981Z,96029.56
2023-01-18T07:23:24.057Z,96027.31
2023-01-18T07:26:41.225Z,96027.80
2023-01-18T07:29:57.611Z,96022.81
2023-01-18T07:33:14.586Z,96024.59
2023-01-18T07:36:31.513Z,96026.05
2023-01-18T07:39:47.990Z,96038.25
2023-01-18T07:43:08.122Z,96040.80
2023-01-18T07:46:26.940Z,96048.83
2023-01-18T07:49:44.550Z,96046.29
2023-01-18T07:53:02.863Z,96049.06
2023-01-18T07:56:26.066Z,96055.71
2023-01-18T07:59:43.733Z,96035.02
2023-01-18T08:03:03.465Z,96039.05
2023-01-18T08:06:25.831Z,96042.22
2023-01-18T08:09:45.900Z,96037.42
2023-01-18T08:13:08.871Z,96026.05
2023-01-18T08:16:29.111Z,96024.80
2023-01-18T08:19:46.921Z,96012.13
2023-01-18T08:23:07.053Z,96018.78
2023-01-18T08:26:23.717Z,96025.19
2023-01-18T08:29:42.943Z,96041.23
2023-01-18T08:33:05.951Z,96044.04
2023-01-18T08:36:29.253Z,96047.28
2023-01-18T08:39:46.751Z,96045.27
2023-01-18T08:43:10.888Z,96064.51
2023-01-18T08:46:28.344Z,96062.29
2023-01-18T08:49:45.888Z,96069.09
2023-01-18T08:53:06.590Z,96064.51
2023-01-18T08:56:24.417Z,96070.79
2023-01-18T08:59:43.918Z,96082.23
2023-01-18T09:06:19.867Z,96086.63
2023-01-18T09:09:36.107Z,96092.80
2023-01-18T09:12:53.739Z,96092.38
2023-01-18T09:16:15.101Z,96094.55
2023-01-18T09:19:33.778Z,96080.06
2023-01-18T09:22:50.049Z,96078.09
2023-01-18T09:26:16.703Z,96074.24
2023-01-18T09:29:32.916Z,96076.03
2023-01-18T09:32:49.109Z,96088.22
2023-01-18T09:36:10.486Z,96093.70
2023-01-18T09:39:27.596Z,96104.59
2023-01-18T09:42:47.767Z,96093.55
2023-01-18T09:46:04.595Z,96091.02
2023-01-18T09:49:27.623Z,96109.34
2023-01-18T09:52:53.498Z,96122.04
2023-01-18T09:56:16.648Z,96127.86
2023-01-18T09:59:37.357Z,96136.52
2023-01-18T10:02:56.117Z,96143.84
2023-01-18T10:06:16.985Z,96141.40
2023-01-18T10:09:38.116Z,96135.81
2023-01-18T10:13:00.417Z,96138.33
2023-01-18T10:16:21.695Z,96139.19
2023-01-18T10:19:39.925Z,96143.23
2023-01-18T10:23:01.303Z,96145.41
2023-01-18T10:26:22.238Z,96154.77
2023-01-18T10:29:49.656Z,96172.55
2023-01-18T10:33:10.956Z,96168.94
2023-01-18T10:36:33.545Z,96159.70
2023-01-18T10:39:55.221Z,96165.00
2023-01-18T10:43:16.075Z,96179.72
2023-01-18T10:46:32.708Z,96188.16
2023-01-18T10:49:52.304Z,96192.70
2023-01-18T10:53:36.910Z,96191.36
2023-01-18T10:56:53.955Z,96204.84
2023-01-18T11:00:14.955Z,96204.07
2023-01-18T11:03:32.200Z,96212.17
2023-01-18T11:06:58.993Z,96215.44
2023-01-18T11:10:26.531Z,96216.44
2023-01-18T11:13:48.308Z,96221.32
2023-01-18T11:17:18.035Z,96223.52
2023-01-18T11:20:49.227Z,96227.13
2023-01-18T11:24:06.223Z,96238.25
2023-01-18T11:27:28.122Z,96245.13
2023-01-18T11:30:48.544Z,96250.78
2023-01-18T11:34:26.232Z,96259.26
2023-01-18T11:37:45.869Z,96259.48
2023-01-18T11:41:22.527Z,96272.00
2023-01-18T11:44:44.054Z,96267.34
2023-01-18T11:51:27.318Z,96277.25
2023-01-18T11:54:47.904Z,96283.89
2023-01-18T11:58:06.113Z,96287.30
2023-01-18T12:01:34.251Z,96287.10
2023-01-18T12:05:01.721Z,96293.19
2023-01-18T12:08:55.755Z,96305.52
2023-01-18T12:12:36.342Z,96328.52
2023-01-18T12:16:10.484Z,96330.37
2023-01-18T12:20:09.089Z,96331.19
2023-01-18T12:23:53.619Z,96348.92
2023-01-18T12:27:14.679Z,96354.59
2023-01-18T12:30:51.171Z,96361.25
2023-01-18T12:34:22.792Z,96364.07
2023-01-18T12:37:46.888Z,96368.53
2023-01-18T12:41:32.298Z,96362.72
2023-01-18T12:45:08.070Z,96370.17
2023-01-18T12:48:41.255Z,96391.14
2023-01-18T12:52:17.659Z,96398.00
2023-01-18T12:55:29.884Z,96392.36
2023-01-18T12:58:47.893Z,96424.86
2023-01-18T13:02:10.263Z,96424.84
2023-01-18T13:05:37.853Z,96429.67
2023-01-18T13:08:59.238Z,96439.78
2023-01-18T13:12:17.466Z,96458.14
2023-01-18T13:15:41.587Z,96464.38
2023-01-18T13:19:06.049Z,96480.90
2023-01-18T13:22:29.405Z,96480.53
2023-01-18T13:25:56.683Z,96493.41
2023-01-18T13:29:31.822Z,96508.88
2023-01-18T13:32:50.326Z,96522.57
2023-01-18T13:36:09.792Z,96534.05
2023-01-18T13:39:37.036Z,96539.72
2023-01-18T13:42:53.571Z,96561.92
2023-01-18T13:46:24.935Z,96577.28
2023-01-18T13:49:52.445Z,96585.14
2023-01-18T13:53:31.773Z,96588.13
2023-01-18T13:57:05.527Z,96579.47
2023-01-18T14:00:34.132Z,96587.77
2023-01-18T14:03:54.305Z,96597.81
2023-01-18T14:07:15.713Z,96614.77
2023-01-18T14:10:39.276Z,96624.15
2023-01-18T14:14:29.336Z,96635.43
2023-01-18T14:17:58.306Z,96637.25
2023-01-18T14:21:25.225Z,96654.80
2023-01-18T14:24:57.423Z,96657.14
2023-01-18T14:28:23.068Z,96666.58
2023-01-18T14:31:47.155Z,96666.03
2023-01-18T14:38:23.601Z,96678.05
2023-01-18T14:41:42.356Z,96672.38
2023-01-18T14:44:59.574Z,96690.27
2023-01-18T14:48:29.402Z,96713.69
2023-01-18T14:51:49.283Z,96719.53
2023-01-18T14:55:06.583Z,96723.78
2023-01-18T14:58:26.296Z,96730.02
2023-01-18T15:01:45.760Z,96740.30
2023-01-18T15:05:17.885Z,96744.01
2023-01-18T15:08:38.576Z,96743.62
2023-01-18T15:11:55.963Z,96760.97
2023-01-18T15:15:18.683Z,96762.25
2023-01-18T15:18:37.184Z,96775.95
2023-01-18T15:21:53.636Z,96783.66
2023-01-18T15:25:12.758Z,96787.72
2023-01-18T15:28:30.544Z,96791.39
2023-01-18T15:31:55.932Z,96801.52
2023-01-18T15:35:15.186Z,96811.42
2023-01-18T15:38:35.085Z,96807.63
2023-01-18T15:41:52.834Z,96815.33
2023-01-18T15:45:09.903Z,96820.73
2023-01-18T15:48:30.014Z,96826.61
2023-01-18T15:52:03.748Z,96834.47
2023-01-18T15:55:32.014Z,96832.66
2023-01-18T15:58:55.487Z,96834.95
2023-01-18T16:02:26.097Z,96833.71
2023-01-18T16:05:43.001Z,96834.45
2023-01-18T16:09:14.952Z,96838.86
2023-01-18T16:12:43.964Z,96844.48
2023-01-18T16:16:20.357Z,96847.45
2023-01-18T16:19:40.712Z,96850.00
2023-01-18T16:22:59.996Z,96861.14
2023-01-18T16:26:18.870Z,96871.50
2023-01-18T16:29:36.170Z,96875.84
2023-01-18T16:32:53.182Z,96895.72
2023-01-18T16:36:19.262Z,96908.70
2023-01-18T16:39:38.083Z,96912.80
2023-01-18T16:43:16.357Z,96929.49
2023-01-18T16:46:33.964Z,96934.55
2023-01-18T16:49:50.457Z,96936.36
2023-01-18T16:53:06.818Z,96932.36
2023-01-18T16:56:27.336Z,96938.06
2023-01-18T16:59:43.839Z,96938.67
2023-01-18T17:03:00.448Z,96958.73
2023-01-18T17:06:24.115Z,96959.71
2023-01-18T17:09:48.726Z,96962.09
2023-01-18T17:13:01.457Z,96974.02
2023-01-18T17:16:24.520Z,96977.95
2023-01-18T17:19:43.919Z,96977.34
2023-01-18T17:23:01.795Z,96989.31
2023-01-18T17:26:21.795Z,96996.66
2023-01-18T17:29:38.074Z,97001.98
2023-01-18T17:32:55.800Z,97002.45
2023-01-18T17:36:13.848Z,97002.11
2023-01-18T17:39:43.370Z,97011.30
2023-01-18T17:42:52.633Z,97022.32
2023-01-18T17:46:11.975Z,97026.34
2023-01-18T17:49:28.810Z,97041.91
2023-01-18T17:52:46.190Z,97048.59
2023-01-18T17:56:02.770Z,97043.83
2023-01-18T17:59:19.620Z,97046.13
2023-01-18T18:02:36.167Z,97050.19
2023-01-18T18:05:56.611Z,97046.41
2023-01-18T18:09:14.472Z,97044.13
2023-01-18T18:12:32.063Z,97047.20
2023-01-18T18:15:52.877Z,97050.66
2023-01-18T18:19:09.487Z,97063.39
2023-01-18T18:22:29.517Z,97069.14
2023-01-18T18:25:48.365Z,97082.70
2023-01-18T18:29:05.011Z,97090.41
2023-01-18T18:32:30.964Z,97099.06
2023-01-18T18:35:49.921Z,97106.05
2023-01-18T18:39:09.431Z,97110.30
2023-01-18T18:42:27.973Z,97114.05
2023-01-18T18:45:44.534Z,97119.10
2023-01-18T18:49:16.315Z,97132.85
2023-01-18T18:52:37.165Z,97132.85
2023-01-18T18:55:53.760Z,97132.67
2023-01-18T18:59:15.523Z,97136.74
2023-01-18T19:02:35.016Z,97131.69
2023-01-18T19:05:57.710Z,97136.56
2023-01-18T19:09:14.338Z,97136.74
2023-01-18T19:12:34.967Z,97152.28
2023-01-18T19:15:59.561Z,97168.66
2023-01-18T19:19:16.231Z,97177.50
2023-01-18T19:22:32.707Z,97192.05
2023-01-18T19:25:54.900Z,97194.85
2023-01-18T19:29:12.240Z,97202.06
2023-01-18T19:32:29.685Z,97206.31
2023-01-18T19:35:50.087Z,97208.28
2023-01-18T19:39:14.691Z,97207.48
2023-01-18T19:42:27.610Z,97206.89
2023-01-18T19:45:55.174Z,97219.23
2023-01-18T19:49:12.141Z,97219.44
2023-01-18T19:52:30.143Z,97220.12
2023-01-18T19:55:56.900Z,97228.65
2023-01-18T19:59:15.547Z,97241.61
2023-01-18T20:02:40.170Z,97249.78
2023-01-18T20:06:57.248Z,97261.08
2023-01-18T20:10:21.018Z,97275.11
2023-01-18T20:13:43.032Z,97278.92
2023-01-18T20:17:06.201Z,97283.17
2023-01-18T20:20:32.435Z,97286.59
2023-01-18T20:24:03.442Z,97274.49
2023-01-18T20:27:22.308Z,97276.97
2023-01-18T20:30:40.076Z,97274.06
2023-01-18T20:33:56.943Z,97273.08
2023-01-18T20:37:23.272Z,97270.95
2023-01-18T20:40:44.730Z,97268.85
2023-01-18T20:44:03.960Z,97270.97
2023-01-18T20:51:06.190Z,97270.63
2023-01-18T20:54:29.747Z,97270.44
2023-01-18T20:57:57.322Z,97274.98
2023-01-18T21:01:20.962Z,97285.73
2023-01-18T21:04:37.862Z,97293.23
2023-01-18T21:07:54.465Z,97301.53
2023-01-18T21:11:13.683Z,97308.23
2023-01-18T21:14:30.515Z,97314.80
2023-01-18T21:17:47.585Z,97315.94
2023-01-18T21:21:05.926Z,97321.67
2023-01-18T21:24:24.653Z,97326.47
2023-01-18T21:27:43.333Z,97320.59
2023-01-18T21:31:02.456Z,97340.20
2023-01-18T21:34:21.490Z,97343.34
2023-01-18T21:37:40.839Z,97337.78
2023-01-18T21:41:03.793Z,97344.34
2023-01-18T21:44:35.984Z,97349.57
2023-01-18T21:47:52.630Z,97347.93
2023-01-18T21:51:25.632Z,97354.80
2023-01-18T21:54:42.507Z,97359.36
2023-01-18T21:58:09.634Z,97355.77
2023-01-18T22:01:31.691Z,97390.44
2023-01-18T22:05:04.810Z,97404.48
2023-01-18T22:08:21.325Z,97402.67
2023-01-18T22:11:38.001Z,97404.95
2023-01-18T22:14:54.629Z,97403.34
2023-01-18T22:18:11.146Z,97410.68
2023-01-18T22:21:28.500Z,97417.55
2023-01-18T22:24:45.177Z,97418.19
2023-01-18T22:28:01.866Z,97412.13
2023-01-18T22:31:19.117Z,97406.67
2023-01-18T22:34:35.857Z,97405.95
2023-01-18T22:37:52.326Z,97416.86
2023-01-18T22:41:19.086Z,97423.67
2023-01-18T22:44:35.858Z,97440.80
2023-01-18T22:47:52.505Z,97438.65
2023-01-18T22:51:11.568Z,97433.58
2023-01-18T22:54:29.330Z,97439.58
2023-01-18T22:57:45.566Z,97443.26
2023-01-18T23:01:02.882Z,97457.73
2023-01-18T23:04:19.644Z,97449.90
2023-01-18T23:07:36.030Z,97453.34
2023-01-18T23:10:52.465Z,97456.99
2023-01-18T23:14:22.589Z,97456.99
2023-01-18T23:17:46.045Z,97452.16
2023-01-18T23:21:08.306Z,97446.38
2023-01-18T23:24:37.456Z,97449.66
2023-01-18T23:27:51.664Z,97452.89
2023-01-18T23:31:07.616Z,97467.27
2023-01-18T23:34:24.105Z,97458.82
2023-01-18T23:37:41.033Z,97473.17
2023-01-18T23:41:11.582Z,97468.92
2023-01-18T23:44:42.599Z,97466.05
2023-01-18T23:48:13.624Z,97464.67
2023-01-18T23:51:43.765Z,97454.99
2023-01-18T23:55:00.122Z,97451.19
2023-01-18T23:58:17.052Z,97453.86
